Terminal Aerodrome Forecast
Issued by NWS Melbourne, FL

Home | Current Version | Previous Version | Text Only | Print | Product List | Glossary On
Versions: 1 2 3 4 5 6 7 8 9 10 11 12 13 14 15 16 17 18 19 20 21 22 23 24 25
000
FTUS42 KMLB 191500 AAA
TAFMCO
TAF AMD
KMCO 191516Z 1915/2012 07007KT P6SM VCSH SCT025 BKN150 OVC250
     FM191900 06008KT 6SM -SHRA SCT030 BKN060 OVC100
     FM200000 04004KT P6SM VCSH BKN040 OVC060=

USA.gov is the U.S. government's official web portal to all federal, state and local government web resources and services.